createdAt,value
2023-02-11T00:00:56.251Z,4.77
2023-02-11T00:03:23.257Z,4.27
2023-02-11T00:06:04.955Z,4.70
2023-02-11T00:08:31.994Z,3.70
2023-02-11T00:10:58.923Z,4.53
2023-02-11T00:13:26.152Z,4.30
2023-02-11T00:15:53.901Z,3.87
2023-02-11T00:18:20.886Z,4.03
2023-02-11T00:20:47.673Z,4.20
2023-02-11T00:23:14.944Z,3.97
2023-02-11T00:25:42.883Z,4.07
2023-02-11T00:28:10.621Z,3.77
2023-02-11T00:30:37.940Z,4.20
2023-02-11T00:33:04.974Z,4.00
2023-02-11T00:35:31.822Z,3.73
2023-02-11T00:37:58.570Z,3.70
2023-02-11T00:40:25.547Z,3.53
2023-02-11T00:42:52.337Z,3.23
2023-02-11T00:45:20.939Z,3.87
2023-02-11T00:47:48.060Z,3.43
2023-02-11T00:50:14.876Z,3.83
2023-02-11T00:52:41.642Z,4.23
2023-02-11T00:55:08.780Z,3.60
2023-02-11T00:57:35.808Z,4.07
2023-02-11T01:00:03.116Z,3.77
2023-02-11T01:02:29.871Z,3.77
2023-02-11T01:04:56.781Z,3.50
2023-02-11T01:07:23.569Z,3.53
2023-02-11T01:09:50.284Z,3.57
2023-02-11T01:12:17.288Z,3.60
2023-02-11T01:14:44.328Z,3.30
2023-02-11T01:17:11.395Z,3.20
2023-02-11T01:19:38.729Z,4.03
2023-02-11T01:22:05.753Z,3.37
2023-02-11T01:24:33.230Z,3.20
2023-02-11T01:26:59.976Z,3.40
2023-02-11T01:29:26.748Z,4.60
2023-02-11T01:31:53.537Z,3.50
2023-02-11T01:34:20.418Z,3.47
2023-02-11T01:36:47.158Z,3.73
2023-02-11T01:39:13.841Z,4.13
2023-02-11T01:41:40.536Z,3.43
2023-02-11T01:44:26.252Z,3.40
2023-02-11T01:46:54.167Z,2.80
2023-02-11T01:49:30.445Z,3.23
2023-02-11T01:52:12.735Z,3.90
2023-02-11T01:55:05.717Z,3.33
2023-02-11T01:57:35.382Z,3.83
2023-02-11T02:00:05.029Z,4.27
2023-02-11T02:02:38.950Z,4.00
2023-02-11T02:05:35.498Z,3.90
2023-02-11T02:08:21.834Z,4.20
2023-02-11T02:10:53.969Z,4.00
2023-02-11T02:13:21.249Z,3.73
2023-02-11T02:15:57.295Z,3.77
2023-02-11T02:18:46.006Z,3.70
2023-02-11T02:21:28.203Z,4.07
2023-02-11T02:24:20.553Z,4.27
2023-02-11T02:27:00.195Z,4.43
2023-02-11T02:30:04.395Z,4.60
2023-02-11T02:32:44.944Z,4.10
2023-02-11T02:35:29.659Z,3.67
2023-02-11T02:38:08.361Z,4.90
2023-02-11T02:40:51.070Z,3.73
2023-02-11T02:43:19.866Z,4.30
2023-02-11T02:45:46.768Z,4.97
2023-02-11T02:48:32.126Z,4.33
2023-02-11T02:51:08.182Z,4.07
2023-02-11T02:53:57.535Z,4.93
2023-02-11T02:56:46.086Z,5.03
2023-02-11T02:59:22.541Z,4.03
2023-02-11T03:02:07.193Z,4.37
2023-02-11T03:05:02.925Z,5.03
2023-02-11T03:07:43.873Z,4.63
2023-02-11T03:10:24.476Z,4.43
2023-02-11T03:12:54.308Z,4.97
2023-02-11T03:15:22.916Z,5.50
2023-02-11T03:17:53.082Z,5.07
2023-02-11T03:20:22.141Z,5.03
2023-02-11T03:22:52.826Z,5.20
2023-02-11T03:25:21.173Z,5.10
2023-02-11T03:28:00.250Z,4.70
2023-02-11T03:30:35.168Z,4.93
2023-02-11T03:33:14.125Z,4.93
2023-02-11T03:36:07.773Z,5.57
2023-02-11T03:38:42.783Z,5.67
2023-02-11T03:41:11.288Z,5.77
2023-02-11T03:43:42.947Z,6.50
2023-02-11T03:46:12.055Z,5.67
2023-02-11T03:48:49.567Z,6.17
2023-02-11T03:51:17.102Z,6.10
2023-02-11T03:53:46.082Z,6.07
2023-02-11T03:56:21.633Z,6.57
2023-02-11T03:58:48.518Z,6.47
2023-02-11T04:01:15.918Z,6.00
2023-02-11T04:03:42.750Z,5.80
2023-02-11T04:06:09.528Z,6.47
2023-02-11T04:08:36.354Z,6.03
2023-02-11T04:11:03.061Z,7.10
2023-02-11T04:13:30.133Z,7.27
2023-02-11T04:15:57.011Z,6.73
2023-02-11T04:18:23.774Z,6.67
2023-02-11T04:20:51.079Z,6.73
2023-02-11T04:23:18.010Z,5.90
2023-02-11T04:25:44.732Z,7.03
2023-02-11T04:28:11.472Z,6.80
2023-02-11T04:30:38.256Z,6.83
2023-02-11T04:33:05.180Z,6.43
2023-02-11T04:35:31.964Z,7.23
2023-02-11T04:37:58.631Z,6.83
2023-02-11T04:40:25.340Z,6.70
2023-02-11T04:42:52.602Z,6.67
2023-02-11T04:45:19.304Z,7.30
2023-02-11T04:47:46.045Z,7.20
2023-02-11T04:50:12.756Z,7.87
2023-02-11T04:52:39.542Z,8.07
2023-02-11T04:55:06.647Z,7.33
2023-02-11T04:57:33.438Z,7.77
2023-02-11T05:00:00.193Z,7.63
2023-02-11T05:02:27.050Z,7.37
2023-02-11T05:04:53.799Z,6.87
2023-02-11T05:07:20.581Z,8.43
2023-02-11T05:09:47.302Z,7.73
2023-02-11T05:12:14.102Z,7.73
2023-02-11T05:14:40.996Z,7.97
2023-02-11T05:17:08.121Z,7.70
2023-02-11T05:19:34.855Z,8.07
2023-02-11T05:22:03.360Z,7.83
2023-02-11T05:24:32.371Z,7.80
2023-02-11T05:26:59.303Z,8.03
2023-02-11T05:29:26.134Z,8.20
2023-02-11T05:31:52.995Z,8.07
2023-02-11T05:34:19.755Z,8.17
2023-02-11T05:36:46.590Z,8.13
2023-02-11T05:39:13.313Z,7.83
2023-02-11T05:41:40.110Z,9.10
2023-02-11T05:44:06.890Z,10.03
2023-02-11T05:46:33.660Z,8.73
2023-02-11T05:49:00.524Z,8.43
2023-02-11T05:51:27.355Z,8.53
2023-02-11T05:53:54.082Z,9.97
2023-02-11T05:56:20.868Z,9.30
2023-02-11T05:58:47.753Z,9.10
2023-02-11T06:01:14.478Z,9.30
2023-02-11T06:03:41.399Z,9.80
2023-02-11T06:06:14.072Z,10.30
2023-02-11T06:08:41.056Z,9.60
2023-02-11T06:11:07.756Z,10.47
2023-02-11T06:13:35.349Z,10.07
2023-02-11T06:16:03.527Z,9.83
2023-02-11T06:18:30.537Z,11.47
2023-02-11T06:20:57.248Z,9.87
2023-02-11T06:23:24.170Z,9.87
2023-02-11T06:25:52.636Z,10.70
2023-02-11T06:28:19.816Z,10.30
2023-02-11T06:30:46.608Z,10.47
2023-02-11T06:33:13.528Z,10.87
2023-02-11T06:35:40.345Z,12.47
2023-02-11T06:38:07.219Z,11.30
2023-02-11T06:40:33.978Z,11.90
2023-02-11T06:43:00.699Z,11.27
2023-02-11T06:45:27.501Z,12.60
2023-02-11T06:47:54.171Z,11.70
2023-02-11T06:50:20.906Z,12.27
2023-02-11T06:52:47.668Z,11.97
2023-02-11T06:55:14.904Z,11.70
2023-02-11T06:57:41.677Z,12.37
2023-02-11T07:00:09.291Z,12.87
2023-02-11T07:02:36.563Z,12.17
2023-02-11T07:05:05.443Z,12.17
2023-02-11T07:07:34.081Z,13.80
2023-02-11T07:10:03.169Z,13.67
2023-02-11T07:12:30.990Z,14.10
2023-02-11T07:14:58.090Z,13.70
2023-02-11T07:17:24.833Z,14.93
2023-02-11T07:19:51.610Z,16.20
2023-02-11T07:22:18.397Z,14.70
2023-02-11T07:24:45.200Z,14.73
2023-02-11T07:27:12.163Z,16.70
2023-02-11T07:29:38.920Z,15.13
2023-02-11T07:32:06.648Z,15.37
2023-02-11T07:34:33.623Z,16.40
2023-02-11T07:37:00.393Z,17.67
2023-02-11T07:39:27.542Z,16.83
2023-02-11T07:41:54.832Z,16.90
2023-02-11T07:44:21.564Z,16.10
2023-02-11T07:46:49.269Z,17.57
2023-02-11T07:49:16.543Z,17.20
2023-02-11T07:51:43.292Z,16.60
2023-02-11T07:54:11.426Z,17.63
2023-02-11T07:56:38.345Z,18.30
2023-02-11T07:59:05.158Z,17.73
2023-02-11T08:01:32.043Z,17.63
2023-02-11T08:04:00.440Z,18.03
2023-02-11T08:06:30.192Z,17.40
2023-02-11T08:08:57.238Z,18.10
2023-02-11T08:11:26.723Z,18.47
2023-02-11T08:13:55.196Z,18.07
2023-02-11T08:16:26.044Z,18.47
2023-02-11T08:18:54.153Z,18.43
2023-02-11T08:21:21.391Z,17.23
2023-02-11T08:23:49.677Z,19.07
2023-02-11T08:26:19.920Z,18.77
2023-02-11T08:28:48.016Z,17.63
2023-02-11T08:31:21.057Z,18.43
2023-02-11T08:33:48.306Z,16.63
2023-02-11T08:36:18.873Z,18.03
2023-02-11T08:38:46.075Z,17.77
2023-02-11T08:41:14.945Z,17.87
2023-02-11T08:43:43.437Z,18.37
2023-02-11T08:46:13.865Z,18.13
2023-02-11T08:48:40.641Z,17.60
2023-02-11T08:51:16.586Z,18.40
2023-02-11T08:53:43.568Z,19.10
2023-02-11T08:56:13.441Z,17.90
2023-02-11T08:58:41.106Z,17.03
2023-02-11T09:01:17.184Z,17.33
2023-02-11T09:03:44.414Z,16.20
2023-02-11T09:06:12.393Z,19.10
2023-02-11T09:08:46.363Z,17.90
2023-02-11T09:11:13.530Z,17.53
2023-02-11T09:13:42.163Z,18.47
2023-02-11T09:16:15.616Z,17.93
2023-02-11T09:18:42.662Z,18.80
2023-02-11T09:21:10.309Z,17.20
2023-02-11T09:23:37.117Z,15.43
2023-02-11T09:26:13.522Z,15.50
2023-02-11T09:28:40.832Z,15.70
2023-02-11T09:31:09.379Z,17.23
2023-02-11T09:33:36.878Z,17.13
2023-02-11T09:36:05.794Z,16.43
2023-02-11T09:38:33.438Z,16.10
2023-02-11T09:41:04.060Z,17.00
2023-02-11T09:43:44.135Z,17.03
2023-02-11T09:46:16.129Z,16.30
2023-02-11T09:48:46.145Z,15.67
2023-02-11T09:51:44.842Z,16.33
2023-02-11T09:54:19.306Z,16.03
2023-02-11T09:56:47.414Z,15.53
2023-02-11T09:59:16.209Z,16.40
2023-02-11T10:02:17.114Z,15.70
2023-02-11T10:08:20.218Z,15.37
2023-02-11T10:11:31.181Z,14.90
2023-02-11T10:14:23.399Z,13.73
2023-02-11T10:17:02.091Z,14.90
2023-02-11T10:19:59.523Z,14.93
2023-02-11T10:22:32.785Z,14.67
2023-02-11T10:25:00.593Z,15.00
2023-02-11T10:27:35.728Z,14.93
2023-02-11T10:30:16.421Z,14.33
2023-02-11T10:32:59.665Z,14.60
2023-02-11T10:35:27.241Z,12.87
2023-02-11T10:37:55.898Z,14.43
2023-02-11T10:40:28.299Z,14.43
2023-02-11T10:43:02.666Z,15.00
2023-02-11T10:45:49.283Z,15.70
2023-02-11T10:48:49.489Z,14.87
2023-02-11T10:51:18.503Z,14.87
2023-02-11T10:53:46.660Z,14.37
2023-02-11T10:56:23.017Z,14.27
2023-02-11T10:59:22.177Z,14.13
2023-02-11T11:01:57.577Z,13.33
2023-02-11T11:04:30.521Z,13.87
2023-02-11T11:07:09.150Z,14.50
2023-02-11T11:09:51.985Z,14.07
2023-02-11T11:12:44.565Z,14.77
2023-02-11T11:15:11.349Z,13.37
2023-02-11T11:17:38.680Z,14.10
2023-02-11T11:20:28.440Z,13.97
2023-02-11T11:23:08.670Z,14.67
2023-02-11T11:25:37.787Z,15.50
2023-02-11T11:28:05.020Z,12.93
2023-02-11T11:30:39.145Z,13.07
2023-02-11T11:33:21.103Z,13.67
2023-02-11T11:36:07.552Z,13.53
2023-02-11T11:38:37.581Z,13.37
2023-02-11T11:41:34.712Z,12.83
2023-02-11T11:44:05.109Z,12.33
2023-02-11T11:46:38.227Z,12.50
2023-02-11T11:49:12.591Z,13.07
2023-02-11T11:51:41.955Z,13.67
2023-02-11T11:54:15.438Z,13.50
2023-02-11T11:57:00.643Z,13.00
2023-02-11T11:59:28.252Z,12.70
2023-02-11T12:02:19.856Z,11.90
2023-02-11T12:05:25.073Z,13.50
2023-02-11T12:08:13.517Z,12.80
2023-02-11T12:11:14.131Z,12.13
2023-02-11T12:14:16.217Z,11.87
2023-02-11T12:17:11.696Z,12.63
2023-02-11T12:19:47.956Z,13.23
2023-02-11T12:22:41.249Z,12.53
2023-02-11T12:25:26.718Z,12.47
2023-02-11T12:27:53.456Z,12.37
2023-02-11T12:30:29.149Z,12.87
2023-02-11T12:33:36.433Z,13.37
2023-02-11T12:36:13.649Z,14.00
2023-02-11T12:38:56.743Z,12.53
2023-02-11T12:41:51.254Z,12.97
2023-02-11T12:45:02.741Z,13.43
2023-02-11T12:47:58.489Z,13.20
2023-02-11T12:50:45.492Z,13.37
2023-02-11T12:53:34.234Z,13.97
2023-02-11T12:56:12.863Z,14.50
2023-02-11T12:58:45.402Z,14.70
2023-02-11T13:01:32.298Z,13.70
2023-02-11T13:04:23.692Z,13.77
2023-02-11T13:07:02.384Z,13.47
2023-02-11T13:09:38.874Z,13.20
2023-02-11T13:12:25.630Z,13.77
2023-02-11T13:14:56.976Z,13.53
2023-02-11T13:17:35.450Z,13.37
2023-02-11T13:20:15.050Z,12.90
2023-02-11T13:22:53.894Z,13.00
2023-02-11T13:25:44.256Z,12.27
2023-02-11T13:28:42.615Z,12.53
2023-02-11T13:31:12.701Z,12.90
2023-02-11T13:33:43.328Z,12.60
2023-02-11T13:36:11.805Z,13.40
2023-02-11T13:38:39.234Z,11.53
2023-02-11T13:41:30.061Z,13.07
2023-02-11T13:44:08.902Z,12.23
2023-02-11T13:46:57.223Z,12.17
2023-02-11T13:49:42.276Z,12.40
2023-02-11T13:52:24.067Z,12.70
2023-02-11T13:54:53.573Z,12.33
2023-02-11T13:57:20.263Z,12.23
2023-02-11T13:59:50.308Z,12.63
2023-02-11T14:02:35.664Z,12.50
2023-02-11T14:05:23.764Z,12.47
2023-02-11T14:08:30.846Z,11.87
2023-02-11T14:11:01.580Z,11.53
2023-02-11T14:13:35.067Z,11.90
2023-02-11T14:16:22.611Z,11.57
2023-02-11T14:18:54.937Z,11.33
2023-02-11T14:21:27.852Z,11.77
2023-02-11T14:24:14.546Z,11.83
2023-02-11T14:27:02.695Z,12.37
2023-02-11T14:29:51.469Z,12.20
2023-02-11T14:32:53.800Z,13.90
2023-02-11T14:35:32.720Z,12.40
2023-02-11T14:38:24.111Z,12.67
2023-02-11T14:41:10.531Z,14.23
2023-02-11T14:43:45.365Z,12.33
2023-02-11T14:46:12.326Z,11.37
2023-02-11T14:48:43.504Z,13.43
2023-02-11T14:51:19.952Z,12.23
2023-02-11T14:54:00.984Z,12.93
2023-02-11T14:56:31.775Z,12.73
2023-02-11T14:58:58.682Z,12.80
2023-02-11T15:01:29.541Z,13.17
2023-02-11T15:03:56.953Z,11.67
2023-02-11T15:06:27.255Z,12.77
2023-02-11T15:09:07.354Z,13.70
2023-02-11T15:11:39.822Z,12.93
2023-02-11T15:14:30.371Z,13.03
2023-02-11T15:17:00.610Z,12.07
2023-02-11T15:19:36.827Z,12.27
2023-02-11T15:22:20.062Z,13.03
2023-02-11T15:25:03.817Z,11.40
2023-02-11T15:27:42.367Z,12.00
2023-02-11T15:30:31.976Z,13.60
2023-02-11T15:33:00.791Z,13.53
2023-02-11T15:35:29.018Z,14.03
2023-02-11T15:37:57.494Z,12.77
2023-02-11T15:40:27.982Z,13.47
2023-02-11T15:42:58.716Z,12.97
2023-02-11T15:45:28.980Z,12.80
2023-02-11T15:48:10.721Z,12.37
2023-02-11T15:50:40.636Z,12.27
2023-02-11T15:53:28.498Z,12.90
2023-02-11T15:56:04.664Z,12.87
2023-02-11T15:58:37.628Z,12.43
2023-02-11T16:01:04.767Z,12.07
2023-02-11T16:03:33.113Z,12.50
2023-02-11T16:06:24.743Z,12.73
2023-02-11T16:09:01.968Z,12.50
2023-02-11T16:11:34.986Z,11.77
2023-02-11T16:14:04.611Z,12.43
2023-02-11T16:16:34.485Z,11.20
2023-02-11T16:19:05.258Z,11.37
2023-02-11T16:21:42.415Z,11.97
2023-02-11T16:24:19.419Z,11.77
2023-02-11T16:26:53.394Z,10.93
2023-02-11T16:29:38.406Z,11.37
2023-02-11T16:32:26.609Z,11.17
2023-02-11T16:34:58.097Z,10.43
2023-02-11T16:37:25.783Z,10.70
2023-02-11T16:39:56.511Z,10.17
2023-02-11T16:42:23.471Z,11.57
2023-02-11T16:44:50.170Z,10.37
2023-02-11T16:47:23.964Z,10.50
2023-02-11T16:49:50.995Z,10.47
2023-02-11T16:52:18.633Z,10.07
2023-02-11T16:54:45.370Z,9.40
2023-02-11T16:57:17.306Z,11.23
2023-02-11T16:59:44.866Z,10.40
2023-02-11T17:02:22.863Z,10.07
2023-02-11T17:04:52.384Z,9.80
2023-02-11T17:07:19.215Z,10.60
2023-02-11T17:09:45.958Z,11.07
2023-02-11T17:12:12.685Z,10.30
2023-02-11T17:14:39.490Z,9.37
2023-02-11T17:17:06.289Z,9.97
2023-02-11T17:19:33.107Z,11.30
2023-02-11T17:21:59.819Z,10.17
2023-02-11T17:24:26.584Z,9.40
2023-02-11T17:26:54.764Z,10.40
2023-02-11T17:29:23.771Z,9.27
2023-02-11T17:31:52.341Z,10.17
2023-02-11T17:34:20.696Z,8.97
2023-02-11T17:36:47.781Z,9.63
2023-02-11T17:39:14.831Z,10.70
2023-02-11T17:41:42.144Z,10.17
2023-02-11T17:44:10.785Z,9.57
2023-02-11T17:46:37.520Z,10.47
2023-02-11T17:49:05.112Z,10.93
2023-02-11T17:51:37.451Z,10.23
2023-02-11T17:54:11.888Z,9.73
2023-02-11T17:56:39.030Z,9.93
2023-02-11T17:59:08.396Z,10.30
2023-02-11T18:01:36.474Z,9.57
2023-02-11T18:04:04.516Z,8.80
2023-02-11T18:06:33.703Z,9.83
2023-02-11T18:09:02.454Z,9.50
2023-02-11T18:11:30.440Z,9.93
2023-02-11T18:13:59.753Z,10.63
2023-02-11T18:16:28.919Z,11.33
2023-02-11T18:18:57.748Z,9.77
2023-02-11T18:21:25.134Z,10.37
2023-02-11T18:23:52.236Z,10.27
2023-02-11T18:26:21.374Z,10.10
2023-02-11T18:28:48.381Z,9.33
2023-02-11T18:31:15.306Z,10.40
2023-02-11T18:33:42.736Z,10.13
2023-02-11T18:36:12.603Z,10.67
2023-02-11T18:38:39.771Z,10.07
2023-02-11T18:41:07.375Z,10.57
2023-02-11T18:43:34.579Z,10.00
2023-02-11T18:46:02.948Z,9.83
2023-02-11T18:48:29.825Z,9.73
2023-02-11T18:50:56.532Z,9.13
2023-02-11T18:53:24.941Z,10.40
2023-02-11T18:55:53.600Z,9.50
2023-02-11T18:58:21.368Z,10.10
2023-02-11T19:00:49.612Z,9.47
2023-02-11T19:03:16.462Z,9.90
2023-02-11T19:05:48.501Z,9.97
2023-02-11T19:08:17.161Z,9.20
2023-02-11T19:10:46.327Z,9.57
2023-02-11T19:13:14.068Z,9.83
2023-02-11T19:15:45.335Z,10.63
2023-02-11T19:18:14.175Z,9.60
2023-02-11T19:20:43.115Z,9.87
2023-02-11T19:23:10.856Z,10.33
2023-02-11T19:25:38.077Z,10.80
2023-02-11T19:28:04.870Z,9.33
2023-02-11T19:30:31.751Z,10.60
2023-02-11T19:32:58.557Z,9.83
2023-02-11T19:35:25.477Z,10.07
2023-02-11T19:37:52.323Z,9.47
2023-02-11T19:40:21.229Z,10.17
2023-02-11T19:42:48.027Z,9.33
2023-02-11T19:45:14.923Z,9.13
2023-02-11T19:47:41.685Z,9.17
2023-02-11T19:50:09.168Z,9.30
2023-02-11T19:52:38.675Z,9.27
2023-02-11T19:55:05.782Z,9.87
2023-02-11T19:57:32.550Z,10.07
2023-02-11T19:59:59.333Z,9.77
2023-02-11T20:02:26.125Z,9.20
2023-02-11T20:04:52.985Z,10.00
2023-02-11T20:07:19.765Z,10.40
2023-02-11T20:09:46.563Z,9.90
2023-02-11T20:12:13.766Z,8.50
2023-02-11T20:14:40.734Z,8.67
2023-02-11T20:17:07.452Z,9.23
2023-02-11T20:19:34.388Z,9.53
2023-02-11T20:22:01.171Z,9.40
2023-02-11T20:24:27.942Z,9.50
2023-02-11T20:26:58.113Z,9.17
2023-02-11T20:29:25.932Z,10.20
2023-02-11T20:31:52.832Z,9.83
2023-02-11T20:34:21.859Z,10.27
2023-02-11T20:36:52.221Z,9.97
2023-02-11T20:39:21.753Z,9.77
2023-02-11T20:41:49.285Z,9.03
2023-02-11T20:44:16.156Z,10.40
2023-02-11T20:46:47.920Z,9.53
2023-02-11T20:49:18.906Z,9.50
2023-02-11T20:51:46.265Z,8.93
2023-02-11T20:54:16.036Z,9.93
2023-02-11T20:56:45.556Z,14.87
2023-02-11T20:59:14.474Z,10.00
2023-02-11T21:01:45.011Z,10.27
2023-02-11T21:04:14.493Z,9.03
2023-02-11T21:06:44.941Z,9.93
2023-02-11T21:09:14.335Z,10.50
2023-02-11T21:11:41.345Z,11.03
2023-02-11T21:14:08.211Z,10.63
2023-02-11T21:16:34.932Z,10.43
2023-02-11T21:19:02.881Z,11.30
2023-02-11T21:21:30.344Z,11.10
2023-02-11T21:23:58.477Z,10.43
2023-02-11T21:26:25.797Z,10.63
2023-02-11T21:28:52.752Z,10.30
2023-02-11T21:31:22.938Z,10.67
2023-02-11T21:33:51.004Z,10.23
2023-02-11T21:36:18.372Z,10.33
2023-02-11T21:38:45.254Z,10.53
2023-02-11T21:41:12.436Z,10.43
2023-02-11T21:43:39.278Z,9.83
2023-02-11T21:46:11.858Z,9.67
2023-02-11T21:48:39.002Z,8.90
2023-02-11T21:51:26.461Z,10.03
2023-02-11T21:53:58.381Z,9.93
2023-02-11T21:56:28.533Z,9.73
2023-02-11T21:58:57.399Z,10.20
2023-02-11T22:01:26.933Z,9.77
2023-02-11T22:03:54.018Z,9.60
2023-02-11T22:06:26.068Z,9.37
2023-02-11T22:08:54.649Z,9.17
2023-02-11T22:11:21.789Z,9.37
2023-02-11T22:13:52.459Z,9.20
2023-02-11T22:16:19.230Z,9.57
2023-02-11T22:18:46.530Z,9.93
2023-02-11T22:21:19.737Z,10.40
2023-02-11T22:23:46.935Z,9.80
2023-02-11T22:26:24.388Z,8.90
2023-02-11T22:28:52.005Z,9.67
2023-02-11T22:31:25.779Z,9.70
2023-02-11T22:33:52.855Z,9.13
2023-02-11T22:36:22.406Z,9.40
2023-02-11T22:38:50.300Z,9.03
2023-02-11T22:41:18.079Z,8.80
2023-02-11T22:43:45.273Z,9.03
2023-02-11T22:46:15.971Z,8.87
2023-02-11T22:48:43.526Z,8.20
2023-02-11T22:51:13.467Z,9.43
2023-02-11T22:53:43.608Z,8.80
2023-02-11T22:56:15.376Z,8.23
2023-02-11T22:58:42.982Z,8.77
2023-02-11T23:01:10.378Z,9.33
2023-02-11T23:03:37.273Z,8.97
2023-02-11T23:06:04.476Z,7.77
2023-02-11T23:08:32.484Z,8.23
2023-02-11T23:11:12.210Z,8.30
2023-02-11T23:13:41.379Z,8.40
2023-02-11T23:16:14.191Z,8.13
2023-02-11T23:18:43.110Z,7.90
2023-02-11T23:21:13.543Z,8.27
2023-02-11T23:23:40.446Z,8.20
2023-02-11T23:26:11.164Z,7.90
2023-02-11T23:28:38.459Z,8.27
2023-02-11T23:31:20.111Z,7.93
2023-02-11T23:33:48.340Z,8.13
2023-02-11T23:36:16.045Z,7.90
2023-02-11T23:38:43.445Z,8.43
2023-02-11T23:41:10.810Z,7.93
2023-02-11T23:43:37.966Z,8.50
2023-02-11T23:46:05.575Z,7.70
2023-02-11T23:48:32.384Z,8.23
2023-02-11T23:50:59.166Z,7.57
2023-02-11T23:53:25.956Z,7.83
2023-02-11T23:55:52.858Z,8.30
2023-02-11T23:58:19.927Z,8.07
